createdAt,value
2023-01-01T00:00:36.521Z,8.55
2023-01-01T00:01:41.798Z,8.52
2023-01-01T00:02:45.008Z,9.15
2023-01-01T00:03:49.950Z,7.50
2023-01-01T00:04:53.237Z,7.35
2023-01-01T00:05:55.407Z,8.10
2023-01-01T00:06:58.547Z,7.20
2023-01-01T00:08:05.023Z,8.35
2023-01-01T00:09:27.267Z,8.07
2023-01-01T00:10:30.493Z,7.82
2023-01-01T00:11:34.158Z,8.15
2023-01-01T00:12:37.861Z,7.22
2023-01-01T00:13:42.760Z,6.55
2023-01-01T00:14:45.207Z,6.32
2023-01-01T00:15:48.302Z,6.13
2023-01-01T00:16:51.612Z,5.88
2023-01-01T00:17:54.400Z,6.40
2023-01-01T00:18:59.164Z,6.47
2023-01-01T00:20:01.319Z,6.28
2023-01-01T00:21:08.968Z,5.90
2023-01-01T00:22:44.183Z,5.57
2023-01-01T00:23:37.151Z,5.78
2023-01-01T00:24:41.908Z,5.32
2023-01-01T00:25:44.989Z,5.72
2023-01-01T00:26:47.054Z,6.30
2023-01-01T00:27:50.889Z,6.22
2023-01-01T00:28:53.938Z,5.85
2023-01-01T00:29:55.983Z,5.88
2023-01-01T00:30:59.076Z,5.40
2023-01-01T00:32:01.604Z,5.40
2023-01-01T00:33:05.018Z,5.72
2023-01-01T00:34:08.112Z,5.47
2023-01-01T00:35:12.518Z,6.10
2023-01-01T00:36:17.055Z,5.97
2023-01-01T00:37:20.632Z,6.05
2023-01-01T00:38:23.891Z,6.68
2023-01-01T00:39:26.857Z,6.82
2023-01-01T00:40:31.597Z,6.55
2023-01-01T00:41:35.108Z,7.18
2023-01-01T00:42:40.181Z,6.75
2023-01-01T00:43:42.702Z,6.40
2023-01-01T00:44:45.747Z,6.20
2023-01-01T00:45:53.936Z,7.07
2023-01-01T00:46:56.062Z,6.18
2023-01-01T00:47:59.203Z,5.90
2023-01-01T00:49:01.252Z,7.60
2023-01-01T00:50:04.598Z,6.30
2023-01-01T00:51:07.273Z,6.68
2023-01-01T00:52:10.381Z,6.68
2023-01-01T00:53:12.519Z,7.13
2023-01-01T00:54:15.637Z,6.55
2023-01-01T00:55:18.004Z,7.25
2023-01-01T00:56:22.599Z,6.20
2023-01-01T00:57:25.725Z,6.93
2023-01-01T00:58:28.838Z,6.10
2023-01-01T00:59:31.951Z,6.75
2023-01-01T01:00:35.068Z,7.05
2023-01-01T01:01:37.767Z,6.70
2023-01-01T01:02:41.131Z,7.30
2023-01-01T01:03:44.445Z,6.53
2023-01-01T01:04:46.720Z,6.82
2023-01-01T01:05:49.919Z,6.47
2023-01-01T01:06:52.001Z,6.43
2023-01-01T01:07:55.572Z,6.65
2023-01-01T01:08:57.687Z,5.88
2023-01-01T01:10:00.808Z,6.32
2023-01-01T01:11:05.803Z,5.50
2023-01-01T01:12:17.906Z,5.15
2023-01-01T01:13:21.254Z,5.78
2023-01-01T01:14:24.319Z,5.63
2023-01-01T01:15:26.478Z,5.95
2023-01-01T01:16:31.602Z,5.80
2023-01-01T01:17:34.352Z,5.85
2023-01-01T01:18:37.948Z,5.30
2023-01-01T01:19:41.093Z,4.95
2023-01-01T01:20:50.176Z,5.20
2023-01-01T01:21:53.267Z,5.50
2023-01-01T01:22:55.408Z,5.20
2023-01-01T01:23:59.834Z,5.15
2023-01-01T01:25:02.005Z,5.10
2023-01-01T01:26:09.419Z,5.20
2023-01-01T01:27:13.838Z,5.05
2023-01-01T01:28:16.121Z,4.85
2023-01-01T01:29:19.344Z,4.60
2023-01-01T01:30:21.496Z,4.57
2023-01-01T01:31:28.536Z,5.38
2023-01-01T01:32:30.652Z,4.95
2023-01-01T01:33:33.988Z,5.20
2023-01-01T01:34:36.079Z,5.47
2023-01-01T01:35:39.225Z,4.60
2023-01-01T01:36:41.306Z,4.88
2023-01-01T01:37:44.403Z,5.18
2023-01-01T01:38:46.784Z,4.95
2023-01-01T01:39:53.776Z,4.60
2023-01-01T01:40:56.581Z,4.78
2023-01-01T01:41:59.808Z,4.63
2023-01-01T01:43:04.301Z,3.97
2023-01-01T01:44:46.703Z,4.53
2023-01-01T01:45:50.327Z,4.47
2023-01-01T01:46:52.480Z,5.28
2023-01-01T01:47:58.150Z,4.85
2023-01-01T01:49:03.582Z,5.15
2023-01-01T01:50:12.594Z,4.93
2023-01-01T01:51:18.778Z,5.05
2023-01-01T01:52:22.190Z,4.20
2023-01-01T01:53:28.399Z,5.15
2023-01-01T01:54:30.971Z,4.15
2023-01-01T01:55:38.551Z,4.70
2023-01-01T01:56:45.466Z,4.78
2023-01-01T01:57:48.686Z,4.35
2023-01-01T01:58:52.536Z,4.43
2023-01-01T02:00:06.852Z,4.65
2023-01-01T02:01:13.661Z,6.07
2023-01-01T02:02:23.251Z,4.88
2023-01-01T02:03:32.209Z,4.55
2023-01-01T02:04:35.651Z,4.22
2023-01-01T02:05:41.658Z,5.05
2023-01-01T02:06:44.771Z,5.47
2023-01-01T02:07:48.583Z,5.43
2023-01-01T02:08:51.691Z,5.10
2023-01-01T02:09:55.368Z,4.72
2023-01-01T02:10:57.619Z,4.50
2023-01-01T02:12:00.777Z,4.28
2023-01-01T02:13:03.090Z,4.30
2023-01-01T02:14:08.065Z,4.38
2023-01-01T02:15:10.701Z,4.20
2023-01-01T02:16:18.442Z,4.30
2023-01-01T02:17:24.754Z,4.30
2023-01-01T02:18:34.161Z,5.00
2023-01-01T02:19:46.424Z,4.32
2023-01-01T02:20:55.740Z,4.75
2023-01-01T02:22:06.668Z,4.97
2023-01-01T02:23:38.388Z,4.47
2023-01-01T02:24:57.909Z,5.00
2023-01-01T02:26:22.787Z,4.60
2023-01-01T02:27:35.892Z,4.40
2023-01-01T02:28:52.996Z,4.65
2023-01-01T02:30:01.895Z,3.95
2023-01-01T02:31:05.215Z,4.80
2023-01-01T02:32:11.850Z,4.57
2023-01-01T02:33:18.287Z,4.55
2023-01-01T02:34:25.722Z,5.13
2023-01-01T02:35:34.683Z,4.35
2023-01-01T02:36:43.396Z,4.72
2023-01-01T02:37:45.787Z,4.40
2023-01-01T02:38:53.435Z,4.32
2023-01-01T02:39:59.826Z,4.30
2023-01-01T02:41:05.821Z,4.45
2023-01-01T02:42:09.420Z,4.20
2023-01-01T02:43:11.510Z,4.72
2023-01-01T02:44:17.323Z,4.47
2023-01-01T02:45:20.131Z,4.32
2023-01-01T02:47:24.276Z,4.22
2023-01-01T02:48:42.462Z,4.57
2023-01-01T02:49:59.277Z,4.55
2023-01-01T02:51:10.475Z,4.90
2023-01-01T02:52:24.701Z,4.78
2023-01-01T02:53:33.481Z,4.47
2023-01-01T02:54:43.754Z,5.05
2023-01-01T02:55:57.807Z,4.97
2023-01-01T02:57:08.373Z,5.47
2023-01-01T02:58:35.558Z,5.28
2023-01-01T03:00:14.484Z,5.65
2023-01-01T03:01:25.594Z,5.43
2023-01-01T03:02:38.196Z,5.53
2023-01-01T03:03:46.163Z,5.07
2023-01-01T03:04:57.847Z,4.90
2023-01-01T03:06:27.067Z,4.93
2023-01-01T03:07:41.194Z,5.25
2023-01-01T03:08:49.745Z,5.28
2023-01-01T03:09:59.796Z,5.97
2023-01-01T03:11:07.511Z,5.63
2023-01-01T03:12:21.323Z,5.20
2023-01-01T03:13:34.370Z,5.43
2023-01-01T03:14:45.079Z,5.35
2023-01-01T03:16:59.179Z,5.40
2023-01-01T03:18:07.869Z,5.85
2023-01-01T03:19:15.280Z,6.25
2023-01-01T03:20:24.023Z,5.75
2023-01-01T03:21:26.148Z,6.60
2023-01-01T03:22:32.512Z,5.95
2023-01-01T03:23:37.374Z,6.40
2023-01-01T03:24:45.552Z,6.10
2023-01-01T03:25:52.943Z,5.90
2023-01-01T03:26:58.852Z,6.10
2023-01-01T03:28:06.427Z,5.97
2023-01-01T03:29:12.620Z,6.53
2023-01-01T03:30:20.430Z,5.95
2023-01-01T03:31:26.302Z,6.10
2023-01-01T03:32:49.346Z,6.53
2023-01-01T03:33:58.232Z,7.03
2023-01-01T03:35:00.384Z,7.07
2023-01-01T03:36:08.138Z,6.53
2023-01-01T03:37:17.575Z,6.72
2023-01-01T03:38:26.221Z,7.40
2023-01-01T03:39:34.604Z,7.18
2023-01-01T03:40:39.860Z,6.93
2023-01-01T03:41:46.665Z,6.38
2023-01-01T03:42:53.076Z,7.15
2023-01-01T03:44:02.905Z,7.13
2023-01-01T03:45:10.579Z,7.05
2023-01-01T03:46:17.102Z,6.70
2023-01-01T03:47:21.221Z,6.47
2023-01-01T03:48:23.755Z,6.10
2023-01-01T03:49:27.194Z,7.20
2023-01-01T03:50:40.660Z,7.15
2023-01-01T03:52:01.517Z,7.40
2023-01-01T03:54:15.308Z,6.47
2023-01-01T03:55:25.741Z,6.95
2023-01-01T03:56:38.405Z,7.10
2023-01-01T03:57:49.184Z,6.70
2023-01-01T04:00:08.081Z,6.82
2023-01-01T04:01:26.776Z,7.10
2023-01-01T04:02:33.279Z,6.40
2023-01-01T04:03:37.859Z,6.38
2023-01-01T04:04:41.217Z,5.95
2023-01-01T04:05:44.013Z,7.10
2023-01-01T04:06:47.856Z,6.60
2023-01-01T04:07:52.099Z,6.30
2023-01-01T04:08:58.775Z,6.47
2023-01-01T04:10:17.042Z,6.25
2023-01-01T04:11:43.727Z,6.15
2023-01-01T04:12:49.517Z,6.05
2023-01-01T04:13:51.530Z,6.30
2023-01-01T04:14:54.581Z,6.32
2023-01-01T04:15:56.761Z,6.30
2023-01-01T04:17:02.127Z,6.10
2023-01-01T04:18:05.855Z,6.07
2023-01-01T04:19:07.874Z,5.97
2023-01-01T04:20:11.729Z,5.95
2023-01-01T04:21:13.910Z,6.53
2023-01-01T04:22:18.069Z,6.03
2023-01-01T04:23:20.090Z,6.10
2023-01-01T04:24:23.436Z,5.93
2023-01-01T04:25:25.980Z,5.55
2023-01-01T04:26:29.057Z,6.65
2023-01-01T04:27:31.100Z,5.88
2023-01-01T04:28:34.152Z,6.28
2023-01-01T04:29:37.194Z,5.85
2023-01-01T04:31:41.175Z,5.97
2023-01-01T04:32:45.984Z,5.55
2023-01-01T04:33:48.084Z,5.55
2023-01-01T04:34:51.316Z,6.22
2023-01-01T04:35:53.381Z,6.63
2023-01-01T04:36:56.455Z,5.25
2023-01-01T04:38:00.614Z,5.38
2023-01-01T04:39:04.543Z,5.60
2023-01-01T04:40:08.112Z,5.35
2023-01-01T04:41:11.268Z,5.40
2023-01-01T04:42:13.384Z,4.97
2023-01-01T04:43:16.446Z,5.35
2023-01-01T04:44:19.166Z,5.43
2023-01-01T04:45:22.398Z,5.30
2023-01-01T04:46:24.961Z,5.18
2023-01-01T04:47:28.284Z,5.25
2023-01-01T04:48:32.113Z,5.18
2023-01-01T04:49:35.173Z,4.95
2023-01-01T04:50:37.215Z,5.15
2023-01-01T04:51:40.332Z,4.60
2023-01-01T04:52:42.366Z,5.10
2023-01-01T04:53:45.667Z,5.10
2023-01-01T04:54:48.753Z,5.70
2023-01-01T04:55:51.012Z,5.15
2023-01-01T04:56:54.078Z,5.28
2023-01-01T04:57:56.115Z,5.00
2023-01-01T04:58:59.204Z,5.15
2023-01-01T05:00:01.276Z,4.50
2023-01-01T05:01:04.608Z,5.32
2023-01-01T05:02:07.927Z,4.75
2023-01-01T05:03:10.198Z,5.30
2023-01-01T05:04:16.698Z,5.10
2023-01-01T05:05:19.137Z,4.90
2023-01-01T05:06:23.082Z,4.20
2023-01-01T05:07:25.156Z,4.15
2023-01-01T05:08:29.588Z,4.30
2023-01-01T05:09:32.588Z,4.65
2023-01-01T05:10:34.700Z,4.63
2023-01-01T05:11:37.809Z,4.28
2023-01-01T05:12:39.882Z,4.60
2023-01-01T05:13:45.146Z,4.32
2023-01-01T05:14:48.199Z,4.32
2023-01-01T05:15:50.232Z,4.03
2023-01-01T05:16:54.070Z,4.25
2023-01-01T05:17:56.181Z,4.40
2023-01-01T05:18:59.904Z,4.30
2023-01-01T05:20:03.937Z,3.80
2023-01-01T05:21:09.145Z,3.50
2023-01-01T05:22:11.522Z,3.72
2023-01-01T05:23:17.034Z,3.45
2023-01-01T05:24:19.094Z,3.28
2023-01-01T05:25:22.175Z,3.13
2023-01-01T05:26:27.189Z,3.47
2023-01-01T05:27:30.476Z,3.78
2023-01-01T05:28:32.496Z,3.60
2023-01-01T05:29:35.555Z,3.90
2023-01-01T05:30:39.537Z,3.55
2023-01-01T05:31:42.729Z,3.70
2023-01-01T05:32:44.905Z,3.50
2023-01-01T05:33:48.287Z,3.60
2023-01-01T05:34:51.574Z,3.20
2023-01-01T05:35:56.249Z,3.30
2023-01-01T05:36:59.427Z,3.40
2023-01-01T05:38:01.573Z,3.38
2023-01-01T05:39:06.892Z,3.60
2023-01-01T05:40:10.195Z,3.88
2023-01-01T05:41:15.661Z,3.20
2023-01-01T05:42:18.970Z,3.95
2023-01-01T05:43:22.084Z,3.25
2023-01-01T05:44:25.174Z,3.13
2023-01-01T05:45:27.260Z,3.38
2023-01-01T05:46:30.400Z,3.13
2023-01-01T05:47:32.510Z,3.03
2023-01-01T05:48:36.648Z,3.75
2023-01-01T05:49:39.616Z,3.17
2023-01-01T05:50:42.650Z,3.30
2023-01-01T05:51:46.156Z,3.10
2023-01-01T05:52:49.235Z,3.80
2023-01-01T05:53:51.810Z,3.15
2023-01-01T05:54:54.967Z,4.07
2023-01-01T05:55:57.731Z,3.60
2023-01-01T05:57:00.784Z,3.63
2023-01-01T05:58:02.829Z,3.33
2023-01-01T05:59:06.018Z,3.45
2023-01-01T06:00:09.065Z,3.35
2023-01-01T06:01:14.490Z,3.22
2023-01-01T06:02:16.622Z,2.85
2023-01-01T06:03:19.891Z,3.17
2023-01-01T06:04:23.014Z,3.65
2023-01-01T06:05:25.173Z,3.35
2023-01-01T06:06:30.668Z,3.20
2023-01-01T06:07:35.136Z,3.08
2023-01-01T06:08:37.752Z,4.05
2023-01-01T06:09:40.937Z,3.05
2023-01-01T06:10:43.091Z,3.10
2023-01-01T06:11:46.151Z,2.90
2023-01-01T06:12:48.162Z,3.97
2023-01-01T06:13:54.281Z,3.10
2023-01-01T06:14:56.411Z,3.00
2023-01-01T06:16:01.161Z,3.40
2023-01-01T06:17:03.344Z,3.00
2023-01-01T06:18:06.595Z,3.10
2023-01-01T06:19:08.882Z,2.90
2023-01-01T06:20:12.445Z,2.90
2023-01-01T06:21:16.330Z,3.00
2023-01-01T06:22:19.477Z,2.95
2023-01-01T06:23:22.976Z,3.00
2023-01-01T06:24:26.040Z,3.53
2023-01-01T06:25:28.149Z,2.70
2023-01-01T06:26:33.120Z,2.90
2023-01-01T06:27:36.388Z,3.58
2023-01-01T06:28:40.406Z,2.58
2023-01-01T06:29:42.485Z,2.70
2023-01-01T06:30:45.568Z,2.78
2023-01-01T06:31:47.700Z,2.67
2023-01-01T06:32:50.779Z,3.20
2023-01-01T06:33:52.851Z,2.58
2023-01-01T06:34:55.958Z,2.67
2023-01-01T06:35:58.160Z,2.50
2023-01-01T06:37:06.484Z,2.42
2023-01-01T06:38:09.112Z,2.78
2023-01-01T06:39:13.552Z,2.50
2023-01-01T06:40:15.749Z,2.50
2023-01-01T06:41:20.574Z,2.75
2023-01-01T06:42:22.636Z,2.75
2023-01-01T06:43:25.994Z,3.22
2023-01-01T06:44:29.063Z,2.25
2023-01-01T06:45:31.141Z,3.08
2023-01-01T06:46:35.670Z,2.83
2023-01-01T06:47:37.752Z,2.65
2023-01-01T06:48:42.643Z,2.60
2023-01-01T06:49:44.706Z,3.25
2023-01-01T06:50:47.836Z,2.50
2023-01-01T06:51:49.900Z,2.53
2023-01-01T06:52:52.975Z,2.40
2023-01-01T06:53:57.920Z,2.40
2023-01-01T06:55:02.381Z,2.60
2023-01-01T06:56:05.501Z,2.55
2023-01-01T06:57:08.562Z,2.00
2023-01-01T06:58:10.694Z,2.85
2023-01-01T06:59:14.072Z,3.13
2023-01-01T07:00:16.441Z,2.67
2023-01-01T07:01:22.057Z,3.10
2023-01-01T07:02:24.360Z,2.60
2023-01-01T07:03:27.555Z,2.83
2023-01-01T07:04:29.611Z,2.50
2023-01-01T07:05:32.706Z,2.92
2023-01-01T07:06:36.882Z,2.42
2023-01-01T07:07:39.473Z,3.10
2023-01-01T07:08:42.647Z,2.53
2023-01-01T07:09:45.725Z,2.40
2023-01-01T07:10:49.216Z,2.38
2023-01-01T07:11:52.359Z,2.85
2023-01-01T07:12:54.485Z,2.55
2023-01-01T07:13:57.696Z,2.67
2023-01-01T07:15:00.765Z,2.63
2023-01-01T07:16:08.362Z,2.33
2023-01-01T07:17:15.329Z,2.60
2023-01-01T07:18:17.434Z,2.60
2023-01-01T07:19:20.548Z,2.90
2023-01-01T07:20:22.599Z,2.90
2023-01-01T07:21:32.010Z,2.60
2023-01-01T07:22:35.603Z,2.67
2023-01-01T07:23:37.650Z,2.50
2023-01-01T07:24:41.034Z,2.55
2023-01-01T07:25:43.119Z,2.80
2023-01-01T07:26:47.743Z,2.78
2023-01-01T07:27:49.861Z,2.40
2023-01-01T07:28:53.136Z,2.72
2023-01-01T07:29:55.200Z,2.40
2023-01-01T07:30:58.270Z,2.10
2023-01-01T07:32:01.350Z,2.30
2023-01-01T07:33:03.612Z,2.30
2023-01-01T07:34:06.743Z,2.50
2023-01-01T07:35:09.362Z,2.33
2023-01-01T07:36:12.903Z,2.40
2023-01-01T07:37:14.938Z,2.22
2023-01-01T07:38:18.373Z,2.33
2023-01-01T07:39:20.453Z,2.20
2023-01-01T07:40:23.546Z,2.25
2023-01-01T07:41:25.586Z,2.28
2023-01-01T07:42:30.153Z,2.60
2023-01-01T07:43:33.653Z,2.75
2023-01-01T07:44:36.718Z,2.40
2023-01-01T07:45:38.811Z,2.20
2023-01-01T07:46:41.911Z,2.15
2023-01-01T07:47:54.131Z,2.28
2023-01-01T07:48:57.612Z,2.22
2023-01-01T07:49:59.722Z,2.10
2023-01-01T07:51:02.795Z,2.00
2023-01-01T07:52:06.247Z,2.30
2023-01-01T07:53:08.401Z,1.98
2023-01-01T07:54:11.500Z,2.10
2023-01-01T07:55:14.597Z,2.08
2023-01-01T07:56:17.767Z,2.63
2023-01-01T07:57:19.861Z,2.03
2023-01-01T07:58:24.356Z,2.28
2023-01-01T07:59:27.398Z,2.17
2023-01-01T08:00:30.601Z,1.85
2023-01-01T08:01:37.437Z,1.92
2023-01-01T08:02:40.191Z,2.03
2023-01-01T08:03:43.732Z,1.73
2023-01-01T08:04:45.751Z,1.80
2023-01-01T08:05:48.885Z,1.70
2023-01-01T08:06:51.982Z,1.70
2023-01-01T08:07:54.819Z,1.67
2023-01-01T08:08:57.831Z,1.73
2023-01-01T08:10:00.111Z,1.60
2023-01-01T08:11:04.051Z,1.55
2023-01-01T08:12:06.785Z,1.60
2023-01-01T08:13:10.226Z,1.35
2023-01-01T08:14:13.971Z,1.63
2023-01-01T08:15:17.505Z,1.60
2023-01-01T08:16:20.696Z,1.48
2023-01-01T08:17:23.001Z,1.42
2023-01-01T08:18:26.057Z,1.60
2023-01-01T08:19:29.127Z,1.60
2023-01-01T08:20:33.166Z,1.20
2023-01-01T08:21:38.545Z,1.50
2023-01-01T08:22:40.895Z,1.60
2023-01-01T08:23:43.965Z,1.45
2023-01-01T08:24:46.033Z,1.73
2023-01-01T08:25:49.124Z,1.60
2023-01-01T08:26:51.379Z,1.40
2023-01-01T08:27:54.419Z,1.52
2023-01-01T08:28:57.800Z,1.50
2023-01-01T08:30:01.231Z,1.40
2023-01-01T08:31:04.340Z,1.48
2023-01-01T08:32:06.397Z,1.40
2023-01-01T08:33:09.430Z,1.20
2023-01-01T08:34:12.416Z,1.10
2023-01-01T08:35:14.491Z,1.60
2023-01-01T08:36:17.862Z,1.30
2023-01-01T08:37:22.110Z,1.25
2023-01-01T08:38:25.100Z,1.50
2023-01-01T08:39:27.167Z,1.02
2023-01-01T08:40:30.274Z,1.42
2023-01-01T08:41:33.331Z,1.30
2023-01-01T08:42:36.419Z,0.95
2023-01-01T08:43:39.534Z,1.92
2023-01-01T08:44:41.599Z,1.60
2023-01-01T08:45:46.654Z,1.58
2023-01-01T08:46:48.838Z,1.33
2023-01-01T08:47:51.862Z,1.20
2023-01-01T08:48:54.964Z,1.23
2023-01-01T08:49:58.044Z,1.77
2023-01-01T08:51:03.080Z,1.30
2023-01-01T08:52:05.267Z,1.20
2023-01-01T08:53:08.248Z,1.15
2023-01-01T08:54:10.362Z,1.73
2023-01-01T08:55:13.369Z,1.30
2023-01-01T08:56:16.426Z,1.13
2023-01-01T08:57:18.428Z,1.83
2023-01-01T08:58:21.468Z,1.00
2023-01-01T08:59:23.730Z,1.17
2023-01-01T09:00:26.860Z,1.50
2023-01-01T09:01:30.465Z,1.38
2023-01-01T09:02:33.761Z,0.98
2023-01-01T09:03:36.299Z,1.55
2023-01-01T09:04:39.348Z,1.20
2023-01-01T09:05:45.620Z,1.38
2023-01-01T09:06:48.736Z,1.20
2023-01-01T09:07:51.753Z,1.42
2023-01-01T09:08:53.740Z,1.52
2023-01-01T09:09:56.755Z,1.50
2023-01-01T09:11:00.697Z,1.10
2023-01-01T09:12:06.431Z,1.63
2023-01-01T09:13:09.720Z,1.10
2023-01-01T09:14:11.729Z,1.33
2023-01-01T09:15:17.083Z,2.00
2023-01-01T09:16:21.362Z,1.35
2023-01-01T09:17:24.790Z,1.20
2023-01-01T09:18:27.857Z,1.33
2023-01-01T09:19:31.135Z,1.33
2023-01-01T09:20:35.181Z,1.20
2023-01-01T09:21:38.271Z,1.60
2023-01-01T09:22:41.260Z,1.20
2023-01-01T09:23:44.317Z,1.20
2023-01-01T09:24:46.352Z,1.27
2023-01-01T09:25:49.395Z,1.60
2023-01-01T09:26:51.745Z,1.10
2023-01-01T09:27:59.065Z,1.10
2023-01-01T09:29:01.098Z,1.00
2023-01-01T09:30:04.305Z,1.30
2023-01-01T09:31:06.714Z,1.20
2023-01-01T09:32:09.849Z,1.25
2023-01-01T09:33:14.266Z,1.10
2023-01-01T09:34:18.068Z,1.30
2023-01-01T09:35:20.676Z,1.40
2023-01-01T09:36:29.461Z,1.42
2023-01-01T09:37:32.585Z,1.20
2023-01-01T09:38:34.573Z,1.60
2023-01-01T09:39:37.636Z,1.40
2023-01-01T09:40:53.855Z,1.20
2023-01-01T09:42:17.927Z,1.25
2023-01-01T09:43:32.152Z,1.30
2023-01-01T09:44:51.720Z,1.40
2023-01-01T09:45:58.348Z,1.15
2023-01-01T09:47:03.534Z,1.40
2023-01-01T09:48:11.626Z,1.02
2023-01-01T09:49:23.288Z,1.30
2023-01-01T09:50:33.188Z,1.30
2023-01-01T09:51:45.228Z,1.33
2023-01-01T09:52:56.631Z,1.50
2023-01-01T09:54:06.472Z,1.38
2023-01-01T09:55:19.497Z,1.13
2023-01-01T09:56:27.141Z,1.17
2023-01-01T09:57:31.605Z,1.50
2023-01-01T09:58:36.270Z,1.13
2023-01-01T09:59:38.592Z,1.20
2023-01-01T10:00:45.654Z,1.30
2023-01-01T10:01:55.630Z,1.30
2023-01-01T10:03:09.766Z,1.30
2023-01-01T10:04:38.242Z,1.33
2023-01-01T10:05:54.299Z,1.20
2023-01-01T10:07:04.492Z,1.50
2023-01-01T10:08:22.834Z,1.30
2023-01-01T10:09:35.407Z,1.52
2023-01-01T10:10:41.806Z,1.27
2023-01-01T10:11:58.331Z,1.50
2023-01-01T10:13:09.815Z,1.73
2023-01-01T10:14:21.090Z,1.38
2023-01-01T10:15:28.725Z,1.23
2023-01-01T10:16:38.538Z,1.30
2023-01-01T10:17:44.175Z,1.37
2023-01-01T10:18:49.373Z,1.40
2023-01-01T10:19:57.723Z,1.20
2023-01-01T10:21:07.612Z,1.10
2023-01-01T10:22:16.342Z,1.48
2023-01-01T10:23:25.585Z,1.33
2023-01-01T10:24:38.686Z,1.40
2023-01-01T10:25:44.271Z,1.13
2023-01-01T10:26:49.131Z,1.30
2023-01-01T10:27:59.299Z,1.33
2023-01-01T10:29:06.199Z,1.25
2023-01-01T10:30:17.171Z,1.27
2023-01-01T10:31:30.418Z,1.35
2023-01-01T10:32:35.405Z,1.38
2023-01-01T10:33:37.466Z,1.23
2023-01-01T10:34:40.495Z,1.10
2023-01-01T10:35:47.758Z,1.73
2023-01-01T10:36:53.926Z,1.25
2023-01-01T10:37:57.047Z,1.20
2023-01-01T10:39:00.398Z,1.23
2023-01-01T10:40:06.130Z,1.30
2023-01-01T10:41:17.097Z,1.20
2023-01-01T10:42:22.509Z,1.20
2023-01-01T10:43:24.552Z,1.50
2023-01-01T10:44:31.637Z,1.27
2023-01-01T10:45:37.645Z,1.33
2023-01-01T10:46:47.985Z,1.25
2023-01-01T10:48:19.752Z,1.80
2023-01-01T10:49:22.827Z,1.48
2023-01-01T10:50:43.754Z,1.25
2023-01-01T10:52:57.620Z,1.52
2023-01-01T10:54:00.976Z,1.30
2023-01-01T10:55:04.554Z,1.10
2023-01-01T10:56:11.500Z,1.50
2023-01-01T10:57:16.577Z,0.90
2023-01-01T10:58:36.199Z,1.60
2023-01-01T10:59:41.513Z,1.45
2023-01-01T11:01:01.749Z,1.08
2023-01-01T11:02:18.691Z,1.38
2023-01-01T11:03:23.007Z,1.30
2023-01-01T11:04:25.252Z,1.30
2023-01-01T11:05:28.348Z,1.33
2023-01-01T11:06:36.286Z,1.10
2023-01-01T11:07:42.071Z,1.27
2023-01-01T11:08:50.081Z,1.38
2023-01-01T11:10:03.196Z,0.98
2023-01-01T11:11:06.387Z,1.35
2023-01-01T11:12:54.772Z,1.40
2023-01-01T11:13:43.158Z,1.65
2023-01-01T11:14:53.172Z,1.65
2023-01-01T11:15:55.995Z,1.20
2023-01-01T11:16:59.747Z,1.10
2023-01-01T11:18:06.853Z,1.35
2023-01-01T11:19:23.120Z,1.33
2023-01-01T11:20:26.403Z,1.02
2023-01-01T11:21:28.573Z,1.27
2023-01-01T11:22:39.327Z,1.50
2023-01-01T11:23:42.513Z,1.20
2023-01-01T11:25:01.334Z,1.55
2023-01-01T11:26:08.370Z,1.10
2023-01-01T11:27:19.735Z,1.35
2023-01-01T11:28:22.535Z,1.20
2023-01-01T11:29:28.529Z,1.38
2023-01-01T11:30:31.905Z,1.40
2023-01-01T11:31:40.341Z,1.30
2023-01-01T11:32:42.529Z,1.77
2023-01-01T11:33:49.361Z,1.60
2023-01-01T11:34:58.696Z,1.45
2023-01-01T11:36:02.054Z,1.35
2023-01-01T11:37:17.139Z,1.33
2023-01-01T11:38:29.542Z,1.20
2023-01-01T11:39:37.438Z,1.63
2023-01-01T11:40:47.255Z,1.50
2023-01-01T11:41:52.808Z,1.40
2023-01-01T11:43:00.023Z,1.50
2023-01-01T11:44:03.099Z,1.52
2023-01-01T11:45:14.721Z,1.30
2023-01-01T11:46:24.830Z,1.30
2023-01-01T11:47:31.206Z,1.70
2023-01-01T11:48:35.647Z,1.40
2023-01-01T11:49:37.940Z,1.35
2023-01-01T11:50:43.018Z,1.20
2023-01-01T11:51:46.357Z,1.38
2023-01-01T11:52:50.353Z,1.33
2023-01-01T11:54:10.842Z,1.15
2023-01-01T11:55:23.379Z,1.42
2023-01-01T11:56:27.342Z,1.42
2023-01-01T11:57:30.501Z,1.88
2023-01-01T11:58:41.269Z,1.27
2023-01-01T12:00:51.977Z,1.40
2023-01-01T12:01:59.254Z,1.30
2023-01-01T12:03:12.449Z,1.30
2023-01-01T12:04:21.139Z,1.67
2023-01-01T12:05:29.359Z,1.60
2023-01-01T12:06:37.900Z,1.15
2023-01-01T12:07:43.164Z,1.20
2023-01-01T12:08:53.066Z,1.42
2023-01-01T12:10:02.859Z,1.45
2023-01-01T12:11:18.688Z,1.67
2023-01-01T12:12:27.214Z,1.42
2023-01-01T12:13:33.390Z,1.52
2023-01-01T12:14:43.588Z,1.30
2023-01-01T12:15:51.137Z,1.58
2023-01-01T12:17:00.300Z,1.52
2023-01-01T12:18:12.689Z,1.38
2023-01-01T12:19:23.375Z,1.30
2023-01-01T12:21:32.647Z,1.38
2023-01-01T12:22:36.133Z,1.40
2023-01-01T12:23:38.222Z,1.17
2023-01-01T12:24:41.694Z,1.30
2023-01-01T12:25:53.776Z,1.40
2023-01-01T12:27:11.397Z,1.60
2023-01-01T12:28:29.557Z,1.23
2023-01-01T12:29:55.745Z,1.40
2023-01-01T12:31:09.308Z,1.73
2023-01-01T12:32:20.930Z,1.80
2023-01-01T12:33:46.121Z,1.27
2023-01-01T12:34:56.940Z,1.48
2023-01-01T12:36:16.226Z,1.90
2023-01-01T12:37:28.076Z,1.50
2023-01-01T12:39:27.029Z,1.30
2023-01-01T12:40:38.758Z,1.50
2023-01-01T12:41:49.726Z,1.38
2023-01-01T12:43:03.523Z,1.08
2023-01-01T12:44:18.317Z,1.40
2023-01-01T12:45:44.926Z,1.02
2023-01-01T12:46:57.428Z,1.20
2023-01-01T12:48:14.734Z,1.35
2023-01-01T12:49:37.014Z,1.55
2023-01-01T12:50:59.887Z,1.27
2023-01-01T12:52:20.393Z,1.30
2023-01-01T12:53:36.440Z,1.00
2023-01-01T12:55:12.694Z,1.30
2023-01-01T12:56:23.065Z,1.63
2023-01-01T12:57:32.009Z,1.67
2023-01-01T12:58:39.171Z,1.25
2023-01-01T12:59:48.472Z,1.15
2023-01-01T13:00:55.533Z,1.50
2023-01-01T13:02:01.966Z,1.38
2023-01-01T13:03:09.421Z,1.50
2023-01-01T13:04:15.416Z,1.30
2023-01-01T13:05:22.077Z,1.45
2023-01-01T13:06:31.994Z,1.40
2023-01-01T13:07:41.705Z,1.40
2023-01-01T13:08:48.719Z,1.48
2023-01-01T13:09:52.240Z,1.70
2023-01-01T13:10:58.962Z,1.70
2023-01-01T13:12:07.344Z,1.15
2023-01-01T13:13:13.152Z,1.27
2023-01-01T13:14:15.495Z,1.30
2023-01-01T13:15:48.775Z,1.30
2023-01-01T13:16:54.130Z,1.10
2023-01-01T13:17:56.177Z,1.50
2023-01-01T13:19:02.786Z,1.27
2023-01-01T13:20:23.153Z,1.23
2023-01-01T13:21:28.239Z,1.73
2023-01-01T13:22:42.859Z,1.17
2023-01-01T13:23:48.016Z,1.60
2023-01-01T13:25:05.134Z,1.55
2023-01-01T13:26:37.147Z,1.48
2023-01-01T13:28:13.924Z,1.40
2023-01-01T13:29:51.357Z,1.50
2023-01-01T13:30:53.588Z,1.27
2023-01-01T13:32:07.305Z,1.60
2023-01-01T13:33:26.203Z,1.40
2023-01-01T13:34:54.918Z,1.45
2023-01-01T13:36:33.823Z,1.77
2023-01-01T13:37:54.671Z,1.60
2023-01-01T13:40:01.500Z,1.60
2023-01-01T13:41:04.654Z,1.48
2023-01-01T13:42:42.242Z,2.00
2023-01-01T13:43:46.639Z,2.00
2023-01-01T13:44:48.714Z,1.55
2023-01-01T13:46:13.392Z,1.75
2023-01-01T13:47:31.178Z,1.50
2023-01-01T13:48:48.790Z,1.70
2023-01-01T13:50:06.503Z,1.77
2023-01-01T13:52:02.870Z,1.70
2023-01-01T13:53:01.968Z,1.65
2023-01-01T13:54:32.419Z,1.88
2023-01-01T13:55:58.264Z,1.70
2023-01-01T13:57:05.008Z,1.25
2023-01-01T13:58:32.572Z,2.00
2023-01-01T13:59:52.665Z,1.55
2023-01-01T14:01:08.194Z,1.50
2023-01-01T14:02:22.903Z,1.60
2023-01-01T14:03:29.583Z,1.40
2023-01-01T14:04:40.421Z,1.88
2023-01-01T14:05:46.364Z,1.50
2023-01-01T14:06:51.468Z,1.67
2023-01-01T14:07:56.342Z,2.05
2023-01-01T14:09:04.218Z,1.60
2023-01-01T14:10:22.281Z,2.10
2023-01-01T14:11:26.479Z,1.50
2023-01-01T14:12:30.177Z,1.83
2023-01-01T14:13:42.410Z,1.67
2023-01-01T14:14:47.324Z,1.85
2023-01-01T14:15:56.082Z,2.10
2023-01-01T14:17:02.178Z,2.25
2023-01-01T14:18:12.151Z,1.98
2023-01-01T14:19:16.522Z,1.63
2023-01-01T14:20:21.592Z,1.50
2023-01-01T14:21:27.652Z,1.70
2023-01-01T14:22:30.849Z,1.50
2023-01-01T14:23:36.701Z,1.77
2023-01-01T14:24:42.964Z,1.90
2023-01-01T14:25:46.985Z,1.60
2023-01-01T14:26:51.217Z,1.60
2023-01-01T14:27:54.852Z,1.80
2023-01-01T14:28:59.967Z,1.60
2023-01-01T14:30:04.865Z,1.55
2023-01-01T14:31:13.201Z,1.65
2023-01-01T14:32:22.162Z,2.20
2023-01-01T14:33:26.473Z,2.10
2023-01-01T14:34:32.452Z,2.20
2023-01-01T14:35:35.577Z,1.60
2023-01-01T14:36:38.638Z,1.80
2023-01-01T14:37:41.735Z,1.80
2023-01-01T14:38:46.488Z,1.67
2023-01-01T14:40:05.589Z,1.70
2023-01-01T14:41:15.303Z,1.83
2023-01-01T14:42:18.693Z,1.77
2023-01-01T14:43:22.895Z,1.75
2023-01-01T14:44:31.003Z,1.63
2023-01-01T14:45:38.872Z,2.28
2023-01-01T14:46:43.450Z,2.10
2023-01-01T14:47:50.367Z,1.90
2023-01-01T14:49:35.682Z,1.70
2023-01-01T14:50:35.566Z,2.20
2023-01-01T14:51:44.658Z,1.63
2023-01-01T14:52:53.265Z,2.10
2023-01-01T14:53:59.372Z,1.80
2023-01-01T14:55:03.383Z,1.90
2023-01-01T14:56:08.065Z,1.67
2023-01-01T14:57:13.948Z,2.08
2023-01-01T14:58:20.799Z,1.98